Time;durP1;ratioP1;P1;durP2;ratioP2;P2;SDS_P1;SDS_P2;PMS_P1;PMS_P2;Temp;Humidity;BMP_temperature;BMP_pressure;BME280_temperature;BME280_humidity;BME280_pressure;Samples;Min_cycle;Max_cycle;Signal;HPM_P1;HPM_P2
2020/12/14 00:00:54;;;;;;;10.00;7.03;;;;;;;;;;5051611;28;20226;-80
2020/12/14 00:03:22;;;;;;;12.50;7.07;;;;;;;;;;5068861;28;20230;-80
2020/12/14 00:05:50;;;;;;;12.33;7.70;;;;;;;;;;5049327;28;20230;-80
2020/12/14 00:08:18;;;;;;;10.13;7.57;;;;;;;;;;5066974;28;20227;-81
2020/12/14 00:10:45;;;;;;;11.60;7.90;;;;;;;;;;5050456;28;20237;-79
2020/12/14 00:13:13;;;;;;;12.30;8.10;;;;;;;;;;5060986;28;20234;-79
2020/12/14 00:15:42;;;;;;;10.90;7.73;;;;;;;;;;5073474;28;20237;-79
2020/12/14 00:18:09;;;;;;;9.90;7.23;;;;;;;;;;5075902;28;20230;-81
2020/12/14 00:20:37;;;;;;;10.73;7.20;;;;;;;;;;5075696;28;20226;-79
2020/12/14 00:23:05;;;;;;;11.23;7.03;;;;;;;;;;5066296;28;20227;-80
2020/12/14 00:25:32;;;;;;;12.77;6.57;;;;;;;;;;5069845;28;20223;-80
2020/12/14 00:28:00;;;;;;;10.30;7.40;;;;;;;;;;5056203;28;20227;-79
2020/12/14 00:30:27;;;;;;;10.63;6.60;;;;;;;;;;5051516;28;20227;-80
2020/12/14 00:32:56;;;;;;;9.93;6.57;;;;;;;;;;5068740;28;20231;-79
2020/12/14 00:35:23;;;;;;;10.03;6.77;;;;;;;;;;5049281;28;20595;-80
2020/12/14 00:37:51;;;;;;;15.07;7.60;;;;;;;;;;5043535;28;20223;-79
2020/12/14 00:40:19;;;;;;;11.80;7.20;;;;;;;;;;5058974;28;20215;-81
2020/12/14 00:42:46;;;;;;;10.73;6.93;;;;;;;;;;5059204;28;20227;-80
2020/12/14 00:45:14;;;;;;;9.83;7.23;;;;;;;;;;5066403;28;20238;-80
2020/12/14 00:47:42;;;;;;;11.40;7.50;;;;;;;;;;5064212;28;20226;-79
2020/12/14 00:50:11;;;;;;;13.63;8.03;;;;;;;;;;5063074;28;20240;-80
2020/12/14 00:52:39;;;;;;;10.50;7.03;;;;;;;;;;5069256;28;20595;-79
2020/12/14 00:55:07;;;;;;;12.97;7.60;;;;;;;;;;5064450;28;20226;-78
2020/12/14 00:57:34;;;;;;;9.77;6.87;;;;;;;;;;5076346;28;20230;-79
2020/12/14 01:00:03;;;;;;;11.70;7.87;;;;;;;;;;5057269;28;20226;-79
2020/12/14 01:02:31;;;;;;;11.90;7.53;;;;;;;;;;5051746;28;20223;-79
2020/12/14 01:04:59;;;;;;;12.07;8.07;;;;;;;;;;5054562;28;20237;-79
2020/12/14 01:07:28;;;;;;;11.17;7.03;;;;;;;;;;5058173;28;20233;-79
2020/12/14 01:09:56;;;;;;;11.07;7.60;;;;;;;;;;5054701;28;20219;-79
2020/12/14 01:12:23;;;;;;;14.53;8.03;;;;;;;;;;5074614;28;20238;-80
2020/12/14 01:14:52;;;;;;;11.00;7.40;;;;;;;;;;5062482;28;20219;-79
2020/12/14 01:17:19;;;;;;;10.10;7.33;;;;;;;;;;5050751;28;20215;-78
2020/12/14 01:19:47;;;;;;;11.23;7.67;;;;;;;;;;5049426;28;20345;-79
2020/12/14 01:22:15;;;;;;;12.30;7.77;;;;;;;;;;5067904;28;20239;-79
2020/12/14 01:24:43;;;;;;;11.03;7.43;;;;;;;;;;5074008;28;20594;-80
2020/12/14 01:27:11;;;;;;;9.30;7.23;;;;;;;;;;5066956;28;20226;-80
2020/12/14 01:29:40;;;;;;;12.77;7.50;;;;;;;;;;5069648;28;20219;-78
2020/12/14 01:32:08;;;;;;;12.10;7.60;;;;;;;;;;5051910;28;20222;-79
2020/12/14 01:34:36;;;;;;;10.10;7.60;;;;;;;;;;5063535;28;20223;-80
2020/12/14 01:37:04;;;;;;;13.93;8.63;;;;;;;;;;5065883;28;20235;-79
2020/12/14 01:39:31;;;;;;;10.33;7.57;;;;;;;;;;5067847;28;20242;-79
2020/12/14 01:42:00;;;;;;;13.20;8.03;;;;;;;;;;5071610;28;20231;-79
2020/12/14 01:44:27;;;;;;;13.63;8.50;;;;;;;;;;5051114;28;20713;-78
2020/12/14 01:46:59;;;;;;;12.10;8.73;;;;;;;;;;5062944;28;20227;-78
2020/12/14 01:49:27;;;;;;;13.93;8.57;;;;;;;;;;5061713;28;20234;-79
2020/12/14 01:51:55;;;;;;;11.83;8.37;;;;;;;;;;5068320;28;20222;-79
2020/12/14 01:54:24;;;;;;;11.33;8.57;;;;;;;;;;5044834;28;20585;-80
2020/12/14 01:56:52;;;;;;;12.23;7.93;;;;;;;;;;5059815;28;20688;-80
2020/12/14 01:59:20;;;;;;;10.50;7.77;;;;;;;;;;5048763;28;20711;-79
2020/12/14 02:01:48;;;;;;;12.37;8.40;;;;;;;;;;5061976;28;20242;-80
2020/12/14 02:04:16;;;;;;;10.83;8.30;;;;;;;;;;5071386;28;20230;-80
2020/12/14 02:06:44;;;;;;;11.00;7.90;;;;;;;;;;5059412;28;20226;-78
2020/12/14 02:09:12;;;;;;;10.40;7.43;;;;;;;;;;5056643;28;20234;-78
2020/12/14 02:11:39;;;;;;;13.70;8.80;;;;;;;;;;5052849;28;20230;-79
2020/12/14 02:14:07;;;;;;;10.13;7.60;;;;;;;;;;5053567;28;20222;-81
2020/12/14 02:16:36;;;;;;;11.43;7.90;;;;;;;;;;5050960;28;20230;-79
2020/12/14 02:19:04;;;;;;;12.70;8.70;;;;;;;;;;5051760;28;20234;-79
2020/12/14 02:21:31;;;;;;;10.37;7.07;;;;;;;;;;5083307;28;20230;-79
2020/12/14 02:23:59;;;;;;;10.37;7.40;;;;;;;;;;5064563;28;20219;-80
2020/12/14 02:26:27;;;;;;;11.07;7.70;;;;;;;;;;5069238;28;20218;-78
2020/12/14 02:28:55;;;;;;;11.43;7.73;;;;;;;;;;5072018;28;20226;-79
2020/12/14 02:31:23;;;;;;;9.70;7.37;;;;;;;;;;5049760;28;20231;-80
2020/12/14 02:33:50;;;;;;;10.37;8.03;;;;;;;;;;5053186;28;20599;-78
2020/12/14 02:36:19;;;;;;;10.47;7.77;;;;;;;;;;5068861;28;20603;-79
2020/12/14 02:38:46;;;;;;;10.33;7.50;;;;;;;;;;5055208;28;20708;-80
2020/12/14 02:41:14;;;;;;;13.47;7.97;;;;;;;;;;5070224;28;20234;-78
2020/12/14 02:43:42;;;;;;;10.57;7.43;;;;;;;;;;5048647;28;20230;-79
2020/12/14 02:46:10;;;;;;;10.03;7.47;;;;;;;;;;5067490;28;20227;-80
2020/12/14 02:48:37;;;;;;;10.17;7.50;;;;;;;;;;5065636;28;20700;-79
2020/12/14 02:51:05;;;;;;;11.40;7.33;;;;;;;;;;5065161;28;20237;-80
2020/12/14 02:53:33;;;;;;;12.13;7.83;;;;;;;;;;5043679;28;20223;-79
2020/12/14 02:56:00;;;;;;;10.57;7.00;;;;;;;;;;5070630;28;20234;-80
2020/12/14 02:58:28;;;;;;;10.13;7.13;;;;;;;;;;5062058;28;20233;-79
2020/12/14 03:00:59;;;;;;;10.10;7.23;;;;;;;;;;5048641;28;20666;-79
2020/12/14 03:03:26;;;;;;;9.43;7.00;;;;;;;;;;5067495;28;20223;-79
2020/12/14 03:05:54;;;;;;;10.73;7.03;;;;;;;;;;5046709;28;20222;-80
2020/12/14 03:08:22;;;;;;;9.10;6.40;;;;;;;;;;5070089;28;20238;-80
2020/12/14 03:10:49;;;;;;;9.37;6.60;;;;;;;;;;5066430;28;20235;-79
2020/12/14 03:13:17;;;;;;;11.70;6.70;;;;;;;;;;5055374;28;20226;-79
2020/12/14 03:15:45;;;;;;;13.90;7.40;;;;;;;;;;5080764;28;20223;-78
2020/12/14 03:18:13;;;;;;;21.47;8.70;;;;;;;;;;5068737;28;20230;-79
2020/12/14 03:20:41;;;;;;;22.67;8.40;;;;;;;;;;5058308;28;20716;-79
2020/12/14 03:23:08;;;;;;;12.97;8.10;;;;;;;;;;5066904;28;21231;-77
2020/12/14 03:25:35;;;;;;;12.63;7.70;;;;;;;;;;5071641;28;20226;-78
2020/12/14 03:28:03;;;;;;;13.50;8.10;;;;;;;;;;5059117;28;20244;-79
2020/12/14 03:30:31;;;;;;;17.83;8.23;;;;;;;;;;5063733;28;20619;-79
2020/12/14 03:32:58;;;;;;;20.90;8.97;;;;;;;;;;5051990;28;20233;-79
2020/12/14 03:35:27;;;;;;;21.73;8.60;;;;;;;;;;5074850;28;20242;-78
2020/12/14 03:37:56;;;;;;;12.67;7.83;;;;;;;;;;5070430;28;20234;-79
2020/12/14 03:40:23;;;;;;;16.07;8.47;;;;;;;;;;5057367;28;20231;-78
2020/12/14 03:42:51;;;;;;;15.83;8.67;;;;;;;;;;5060978;28;20227;-79
2020/12/14 03:45:19;;;;;;;15.00;8.80;;;;;;;;;;5049323;28;20696;-80
2020/12/14 03:47:46;;;;;;;17.03;8.20;;;;;;;;;;5051632;28;20231;-79
2020/12/14 03:50:14;;;;;;;12.33;7.03;;;;;;;;;;5053058;28;20599;-78
2020/12/14 03:52:44;;;;;;;10.60;6.63;;;;;;;;;;5083021;28;20264;-80
2020/12/14 03:55:13;;;;;;;9.63;6.40;;;;;;;;;;5061498;28;20219;-78
2020/12/14 03:57:40;;;;;;;11.13;7.10;;;;;;;;;;5046324;28;20230;-78
2020/12/14 04:00:08;;;;;;;12.20;7.63;;;;;;;;;;5071098;28;20222;-79
2020/12/14 04:02:38;;;;;;;9.60;6.60;;;;;;;;;;5071624;28;20253;-79
2020/12/14 04:05:07;;;;;;;11.20;7.13;;;;;;;;;;5071415;28;20222;-78
2020/12/14 04:07:34;;;;;;;9.60;6.53;;;;;;;;;;5078492;28;20231;-80
2020/12/14 04:10:03;;;;;;;12.10;6.47;;;;;;;;;;5085223;28;20214;-79
2020/12/14 04:12:30;;;;;;;19.73;7.40;;;;;;;;;;5072457;28;20212;-78
2020/12/14 04:14:58;;;;;;;15.03;7.37;;;;;;;;;;5092884;28;20206;-80
2020/12/14 04:17:25;;;;;;;13.90;6.90;;;;;;;;;;5072371;28;20219;-79
2020/12/14 04:19:53;;;;;;;17.40;7.77;;;;;;;;;;5085914;28;20217;-79
2020/12/14 04:22:22;;;;;;;16.10;8.03;;;;;;;;;;5053063;28;20704;-80
2020/12/14 04:24:49;;;;;;;14.13;7.47;;;;;;;;;;5060668;28;20249;-80
2020/12/14 04:27:18;;;;;;;12.53;7.97;;;;;;;;;;5066277;28;20222;-80
2020/12/14 04:29:46;;;;;;;15.23;7.90;;;;;;;;;;5067142;28;20245;-81
2020/12/14 04:32:13;;;;;;;13.27;8.13;;;;;;;;;;5046183;28;20241;-79
2020/12/14 04:34:41;;;;;;;14.23;8.77;;;;;;;;;;5047056;28;20226;-80
2020/12/14 04:37:08;;;;;;;10.07;7.20;;;;;;;;;;5058326;28;20223;-80
2020/12/14 04:39:36;;;;;;;12.27;7.73;;;;;;;;;;5043414;28;20611;-79
2020/12/14 04:42:03;;;;;;;13.17;7.80;;;;;;;;;;5063441;28;20238;-80
2020/12/14 04:44:33;;;;;;;11.43;6.93;;;;;;;;;;5060980;28;20238;-79
2020/12/14 04:47:02;;;;;;;13.70;8.50;;;;;;;;;;5059451;28;20239;-79
2020/12/14 04:49:30;;;;;;;10.43;6.90;;;;;;;;;;5061029;28;20238;-79
2020/12/14 04:51:58;;;;;;;9.03;6.70;;;;;;;;;;5052347;28;20222;-80
2020/12/14 04:54:26;;;;;;;13.10;7.20;;;;;;;;;;5069732;28;20229;-79
2020/12/14 04:56:54;;;;;;;11.17;6.83;;;;;;;;;;5068356;28;20232;-79
2020/12/14 04:59:24;;;;;;;9.47;6.33;;;;;;;;;;5064127;28;20222;-79
2020/12/14 05:01:52;;;;;;;11.03;6.67;;;;;;;;;;5070545;28;20235;-79
2020/12/14 05:04:20;;;;;;;10.17;6.40;;;;;;;;;;5063455;28;20992;-79
2020/12/14 05:06:49;;;;;;;9.90;6.80;;;;;;;;;;5063771;28;20231;-80
2020/12/14 05:09:18;;;;;;;9.73;6.50;;;;;;;;;;5046521;28;20226;-79
2020/12/14 05:11:46;;;;;;;9.87;6.30;;;;;;;;;;5060821;28;20623;-79
2020/12/14 05:14:16;;;;;;;8.60;6.17;;;;;;;;;;5061983;28;20223;-79
2020/12/14 05:16:44;;;;;;;8.70;5.87;;;;;;;;;;5051115;28;20233;-80
2020/12/14 05:19:24;;;;;;;8.60;5.23;;;;;;;;;;5067174;28;20222;-79
2020/12/14 05:21:53;;;;;;;9.77;6.43;;;;;;;;;;5060684;28;20231;-79
2020/12/14 05:24:23;;;;;;;7.33;5.13;;;;;;;;;;5071162;28;20222;-79
2020/12/14 05:26:51;;;;;;;7.63;4.93;;;;;;;;;;5067280;28;20227;-79
2020/12/14 05:29:26;;;;;;;8.60;6.07;;;;;;;;;;5075346;28;20468;-79
2020/12/14 05:32:05;;;;;;;10.77;6.37;;;;;;;;;;5064939;28;20233;-80
2020/12/14 05:34:35;;;;;;;9.07;6.37;;;;;;;;;;5063504;28;20219;-78
2020/12/14 05:37:04;;;;;;;7.57;5.53;;;;;;;;;;5065967;28;20686;-79
2020/12/14 05:39:32;;;;;;;7.53;5.27;;;;;;;;;;5053777;28;20219;-79
2020/12/14 05:42:14;;;;;;;7.40;4.60;;;;;;;;;;5067643;28;20239;-78
2020/12/14 05:44:43;;;;;;;7.27;5.27;;;;;;;;;;5066635;28;20219;-79
2020/12/14 05:47:25;;;;;;;6.60;5.13;;;;;;;;;;5048465;28;20230;-79
2020/12/14 05:49:54;;;;;;;6.97;4.70;;;;;;;;;;5053550;28;20224;-79
2020/12/14 05:52:23;;;;;;;8.00;5.10;;;;;;;;;;5070859;28;20226;-79
2020/12/14 05:54:52;;;;;;;6.80;5.03;;;;;;;;;;5050592;28;20242;-79
2020/12/14 05:57:28;;;;;;;7.70;5.07;;;;;;;;;;5064475;28;20226;-79
2020/12/14 05:59:58;;;;;;;11.67;7.37;;;;;;;;;;5082323;28;20226;-79
2020/12/14 06:02:26;;;;;;;11.17;7.60;;;;;;;;;;5063445;28;20227;-79
2020/12/14 06:04:58;;;;;;;11.87;7.63;;;;;;;;;;5066685;28;20223;-79
2020/12/14 06:07:27;;;;;;;10.70;7.23;;;;;;;;;;5051055;28;20226;-78
2020/12/14 06:10:09;;;;;;;9.30;6.13;;;;;;;;;;5056054;28;20222;-78
2020/12/14 06:12:39;;;;;;;10.30;6.60;;;;;;;;;;5041280;28;20243;-78
2020/12/14 06:15:08;;;;;;;9.10;6.07;;;;;;;;;;5050460;28;20215;-78
2020/12/14 06:17:37;;;;;;;9.47;6.17;;;;;;;;;;5059953;28;21482;-77
2020/12/14 06:20:12;;;;;;;10.50;6.47;;;;;;;;;;5052253;28;20222;-79
2020/12/14 06:22:43;;;;;;;9.00;5.97;;;;;;;;;;5066907;28;20608;-79
2020/12/14 06:25:11;;;;;;;16.10;8.13;;;;;;;;;;5069352;28;20231;-79
2020/12/14 06:27:38;;;;;;;7.97;5.90;;;;;;;;;;5070785;28;20220;-79
2020/12/14 06:30:36;;;;;;;9.90;6.97;;;;;;;;;;5065142;28;20230;-79
2020/12/14 06:33:05;;;;;;;10.73;6.70;;;;;;;;;;5058380;28;20245;-79
2020/12/14 06:35:45;;;;;;;9.17;6.13;;;;;;;;;;5047155;28;20215;-79
2020/12/14 06:38:12;;;;;;;11.50;6.77;;;;;;;;;;5048272;28;20246;-79
2020/12/14 06:40:56;;;;;;;13.60;7.60;;;;;;;;;;5065498;28;20227;-78
2020/12/14 06:43:31;;;;;;;10.53;6.73;;;;;;;;;;5064197;28;20230;-78
2020/12/14 06:45:59;;;;;;;10.63;6.80;;;;;;;;;;5058898;28;20218;-78
2020/12/14 06:48:37;;;;;;;10.67;6.07;;;;;;;;;;5057405;28;20233;-79
2020/12/14 06:51:07;;;;;;;9.57;6.00;;;;;;;;;;5036147;28;20222;-78
2020/12/14 06:53:49;;;;;;;19.50;7.57;;;;;;;;;;5056355;28;20237;-78
2020/12/14 06:56:39;;;;;;;12.80;6.53;;;;;;;;;;5050693;28;20833;-79
2020/12/14 06:59:29;;;;;;;9.97;6.30;;;;;;;;;;5044218;28;20230;-79
2020/12/14 07:01:57;;;;;;;12.37;6.90;;;;;;;;;;5050382;28;20229;-79
2020/12/14 07:04:36;;;;;;;13.73;7.67;;;;;;;;;;5039906;28;20245;-79
2020/12/14 07:07:33;;;;;;;16.43;7.40;;;;;;;;;;5065275;28;20231;-78
2020/12/14 07:10:11;;;;;;;15.00;7.30;;;;;;;;;;5051984;28;20225;-79
2020/12/14 07:12:44;;;;;;;27.27;7.97;;;;;;;;;;5044660;28;20526;-79
2020/12/14 07:15:27;;;;;;;18.33;8.30;;;;;;;;;;5066009;28;20218;-79
2020/12/14 07:18:00;;;;;;;14.60;7.37;;;;;;;;;;5035454;28;20226;-79
2020/12/14 07:20:28;;;;;;;16.77;7.43;;;;;;;;;;5037115;28;20568;-78
2020/12/14 07:23:01;;;;;;;38.93;9.13;;;;;;;;;;5047588;28;20239;-79
2020/12/14 07:25:32;;;;;;;18.00;7.40;;;;;;;;;;5031354;28;21030;-78
2020/12/14 07:27:59;;;;;;;48.47;8.17;;;;;;;;;;5048085;28;20222;-79
2020/12/14 07:30:28;;;;;;;17.53;7.43;;;;;;;;;;5049202;28;20724;-79
2020/12/14 07:32:55;;;;;;;36.50;6.70;;;;;;;;;;5046878;28;20623;-79
2020/12/14 07:35:23;;;;;;;23.37;6.93;;;;;;;;;;5050235;28;20708;-79
2020/12/14 07:37:52;;;;;;;22.73;7.50;;;;;;;;;;5032905;28;20223;-79
2020/12/14 07:40:20;;;;;;;27.27;7.77;;;;;;;;;;5051519;28;20221;-78
2020/12/14 07:42:47;;;;;;;16.17;6.70;;;;;;;;;;5052462;28;20234;-79
2020/12/14 07:45:17;;;;;;;20.63;7.20;;;;;;;;;;5046223;28;20255;-79
2020/12/14 07:47:47;;;;;;;33.33;7.53;;;;;;;;;;5035016;28;20734;-79
2020/12/14 07:50:18;;;;;;;21.50;6.27;;;;;;;;;;5035406;28;20222;-79
2020/12/14 07:52:49;;;;;;;40.07;7.97;;;;;;;;;;5045443;28;20626;-79
2020/12/14 07:55:17;;;;;;;32.23;7.07;;;;;;;;;;5065837;28;20726;-79
2020/12/14 07:57:47;;;;;;;16.20;6.67;;;;;;;;;;5055728;28;20215;-79
2020/12/14 08:00:16;;;;;;;34.10;8.53;;;;;;;;;;5050667;28;20227;-79
2020/12/14 08:02:44;;;;;;;38.77;8.03;;;;;;;;;;5057830;28;20250;-79
2020/12/14 08:05:14;;;;;;;44.90;9.40;;;;;;;;;;5036228;28;20724;-79
2020/12/14 08:07:45;;;;;;;24.30;8.03;;;;;;;;;;5057122;28;20577;-79
2020/12/14 08:10:20;;;;;;;36.27;8.87;;;;;;;;;;5057145;28;20226;-79
2020/12/14 08:12:47;;;;;;;28.57;8.53;;;;;;;;;;5058395;28;20563;-79
2020/12/14 08:15:17;;;;;;;44.87;9.13;;;;;;;;;;5038832;28;20601;-79
2020/12/14 08:17:46;;;;;;;68.63;11.03;;;;;;;;;;5036017;28;20747;-79
2020/12/14 08:20:26;;;;;;;38.03;8.90;;;;;;;;;;5053318;28;20229;-79
2020/12/14 08:22:54;;;;;;;27.27;8.27;;;;;;;;;;5054903;28;20237;-79
2020/12/14 08:25:22;;;;;;;60.20;9.37;;;;;;;;;;5069665;28;20257;-79
2020/12/14 08:27:52;;;;;;;34.40;7.77;;;;;;;;;;5035308;28;20214;-78
2020/12/14 08:30:20;;;;;;;108.67;11.47;;;;;;;;;;5052200;28;20238;-79
2020/12/14 08:33:07;;;;;;;40.20;7.27;;;;;;;;;;5049789;28;20235;-78
2020/12/14 08:35:36;;;;;;;69.07;9.67;;;;;;;;;;5046132;28;20230;-79
2020/12/14 08:38:05;;;;;;;68.07;9.93;;;;;;;;;;5046799;28;20233;-79
2020/12/14 08:40:33;;;;;;;44.03;7.63;;;;;;;;;;5054493;28;20226;-78
2020/12/14 08:43:10;;;;;;;80.93;16.60;;;;;;;;;;5025093;28;20235;-79
2020/12/14 08:45:39;;;;;;;93.77;11.47;;;;;;;;;;5049999;28;20231;-79
2020/12/14 08:48:06;;;;;;;31.50;7.90;;;;;;;;;;5041815;28;20226;-78
2020/12/14 08:50:34;;;;;;;39.07;7.50;;;;;;;;;;5044789;28;20731;-78
2020/12/14 08:53:03;;;;;;;34.83;8.27;;;;;;;;;;5041663;28;20254;-78
2020/12/14 08:55:35;;;;;;;53.40;8.37;;;;;;;;;;5048815;28;22857;-79
2020/12/14 08:58:02;;;;;;;42.40;8.00;;;;;;;;;;5049661;28;20226;-79
2020/12/14 09:00:30;;;;;;;33.97;7.63;;;;;;;;;;5038198;28;20219;-79
2020/12/14 09:03:01;;;;;;;33.10;6.70;;;;;;;;;;5047530;28;20232;-79
2020/12/14 09:05:33;;;;;;;26.67;6.57;;;;;;;;;;5030816;28;20642;-79
2020/12/14 09:08:19;;;;;;;34.97;7.37;;;;;;;;;;5050041;28;21020;-78
2020/12/14 09:10:56;;;;;;;29.63;6.47;;;;;;;;;;5026494;28;20230;-78
2020/12/14 09:13:24;;;;;;;22.60;6.10;;;;;;;;;;5058568;28;20230;-79
2020/12/14 09:15:53;;;;;;;21.53;6.53;;;;;;;;;;5053516;28;20237;-79
2020/12/14 09:18:20;;;;;;;29.47;6.47;;;;;;;;;;5061327;28;20563;-78
2020/12/14 09:20:48;;;;;;;27.57;7.00;;;;;;;;;;5032773;28;20803;-78
2020/12/14 09:23:20;;;;;;;36.30;7.53;;;;;;;;;;5075058;28;20226;-79
2020/12/14 09:25:47;;;;;;;19.77;6.53;;;;;;;;;;5046848;28;20723;-78
2020/12/14 09:28:15;;;;;;;16.63;6.43;;;;;;;;;;5033285;28;20235;-78
2020/12/14 09:30:43;;;;;;;45.13;7.53;;;;;;;;;;5042250;28;20227;-79
2020/12/14 09:33:10;;;;;;;28.30;5.80;;;;;;;;;;5047445;28;20224;-78
2020/12/14 09:35:38;;;;;;;27.33;6.10;;;;;;;;;;5048806;28;20218;-78
2020/12/14 09:38:05;;;;;;;37.83;6.90;;;;;;;;;;5055172;28;20229;-78
2020/12/14 09:40:34;;;;;;;88.93;8.27;;;;;;;;;;5048174;28;20489;-79
2020/12/14 09:43:01;;;;;;;21.60;6.27;;;;;;;;;;5033828;28;20242;-79
2020/12/14 09:45:29;;;;;;;29.40;6.50;;;;;;;;;;5069669;28;20215;-79
2020/12/14 09:47:56;;;;;;;16.40;6.20;;;;;;;;;;5045750;28;20233;-79
2020/12/14 09:50:24;;;;;;;90.80;8.13;;;;;;;;;;5047110;28;21477;-79
2020/12/14 09:52:51;;;;;;;63.87;7.50;;;;;;;;;;5048525;28;20221;-79
2020/12/14 09:55:23;;;;;;;69.83;7.73;;;;;;;;;;5048221;28;20223;-79
2020/12/14 09:57:51;;;;;;;27.83;6.37;;;;;;;;;;5050771;28;20225;-79
2020/12/14 10:00:19;;;;;;;49.43;6.97;;;;;;;;;;5029972;28;20233;-78
2020/12/14 10:02:58;;;;;;;52.37;6.50;;;;;;;;;;5036132;28;20735;-77
2020/12/14 10:05:36;;;;;;;55.37;7.60;;;;;;;;;;5032358;28;20233;-77
2020/12/14 10:08:04;;;;;;;29.57;6.13;;;;;;;;;;5066723;28;20241;-77
2020/12/14 10:10:31;;;;;;;45.33;7.07;;;;;;;;;;5054389;28;20238;-78
2020/12/14 10:13:01;;;;;;;22.20;5.77;;;;;;;;;;5034092;28;20250;-77
2020/12/14 10:15:28;;;;;;;16.30;5.80;;;;;;;;;;5036570;28;20721;-77
2020/12/14 10:17:56;;;;;;;36.10;6.17;;;;;;;;;;5034335;28;20727;-77
2020/12/14 10:20:24;;;;;;;58.20;7.53;;;;;;;;;;5054439;28;20230;-77
2020/12/14 10:22:51;;;;;;;13.87;5.83;;;;;;;;;;5053235;28;20552;-77
2020/12/14 10:25:19;;;;;;;26.30;5.83;;;;;;;;;;5049343;28;21354;-77
2020/12/14 10:27:46;;;;;;;49.37;9.00;;;;;;;;;;5047448;28;20257;-77
2020/12/14 10:30:15;;;;;;;12.60;6.30;;;;;;;;;;5039088;28;20230;-78
2020/12/14 10:32:44;;;;;;;23.33;6.70;;;;;;;;;;5049363;28;20226;-77
2020/12/14 10:35:18;;;;;;;16.93;6.07;;;;;;;;;;5040435;28;20270;-78
2020/12/14 10:37:46;;;;;;;49.10;7.97;;;;;;;;;;5033930;28;20222;-77
2020/12/14 10:40:13;;;;;;;18.90;6.20;;;;;;;;;;5046652;28;20237;-78
2020/12/14 10:42:41;;;;;;;12.90;6.10;;;;;;;;;;5046068;28;20234;-78
2020/12/14 10:45:09;;;;;;;13.43;5.57;;;;;;;;;;5030244;28;20245;-78
2020/12/14 10:47:39;;;;;;;15.27;5.90;;;;;;;;;;5032608;28;20227;-78
2020/12/14 10:50:15;;;;;;;15.33;6.70;;;;;;;;;;5045018;28;20226;-78
2020/12/14 10:52:44;;;;;;;20.57;7.33;;;;;;;;;;5049845;28;20222;-77
2020/12/14 10:55:11;;;;;;;13.47;6.13;;;;;;;;;;5033457;28;20215;-78
2020/12/14 10:57:39;;;;;;;8.63;6.67;;;;;;;;;;5052475;28;20241;-78
2020/12/14 11:00:07;;;;;;;10.97;6.03;;;;;;;;;;5049526;28;20241;-77
2020/12/14 11:02:35;;;;;;;13.67;7.53;;;;;;;;;;5048887;28;20469;-77
2020/12/14 11:05:04;;;;;;;13.40;7.37;;;;;;;;;;5039980;28;21384;-78
2020/12/14 11:07:32;;;;;;;16.97;8.43;;;;;;;;;;5025621;28;20234;-78
2020/12/14 11:09:59;;;;;;;20.70;8.27;;;;;;;;;;5038680;28;20232;-79
2020/12/14 11:12:27;;;;;;;23.17;9.30;;;;;;;;;;5054205;28;20219;-78
2020/12/14 11:14:54;;;;;;;22.77;9.07;;;;;;;;;;5073240;28;20215;-78
2020/12/14 11:17:42;;;;;;;17.13;9.10;;;;;;;;;;5080011;28;20207;-78
2020/12/14 11:20:31;;;;;;;23.83;8.63;;;;;;;;;;5060798;28;20300;-78
2020/12/14 11:23:18;;;;;;;31.37;8.93;;;;;;;;;;5069475;28;20216;-79
2020/12/14 11:25:45;;;;;;;79.40;12.67;;;;;;;;;;5066003;28;20216;-78
2020/12/14 11:28:14;;;;;;;39.13;10.80;;;;;;;;;;5053176;28;20567;-77
2020/12/14 11:30:42;;;;;;;59.80;11.03;;;;;;;;;;5026486;28;20227;-77
2020/12/14 11:33:10;;;;;;;38.23;11.77;;;;;;;;;;5028222;28;20228;-78
2020/12/14 11:35:39;;;;;;;37.30;11.83;;;;;;;;;;5045809;28;20230;-77
2020/12/14 11:38:07;;;;;;;41.77;13.03;;;;;;;;;;5031392;28;20600;-78
2020/12/14 11:40:34;;;;;;;28.00;11.40;;;;;;;;;;5046961;28;20615;-77
2020/12/14 11:43:02;;;;;;;35.23;11.90;;;;;;;;;;5039749;28;20504;-77
2020/12/14 11:45:50;;;;;;;25.53;12.57;;;;;;;;;;5044596;28;20598;-78
2020/12/14 11:48:18;;;;;;;26.23;12.17;;;;;;;;;;5041611;28;20232;-78
2020/12/14 11:50:46;;;;;;;21.17;12.10;;;;;;;;;;5044489;28;20818;-78
2020/12/14 11:53:13;;;;;;;33.67;13.43;;;;;;;;;;5044907;28;20230;-78
2020/12/14 11:55:44;;;;;;;37.77;14.30;;;;;;;;;;5032844;28;20237;-78
2020/12/14 11:58:12;;;;;;;30.47;13.83;;;;;;;;;;5045751;28;20231;-78
2020/12/14 12:00:39;;;;;;;23.97;11.87;;;;;;;;;;5051841;28;20226;-78
2020/12/14 12:03:07;;;;;;;28.57;13.47;;;;;;;;;;5045038;28;20707;-78
2020/12/14 12:05:34;;;;;;;29.87;13.93;;;;;;;;;;5031570;28;20229;-77
2020/12/14 12:08:02;;;;;;;25.73;13.83;;;;;;;;;;5050002;28;20234;-77
2020/12/14 12:10:30;;;;;;;25.33;13.57;;;;;;;;;;5056817;28;20223;-77
2020/12/14 12:12:57;;;;;;;25.67;12.67;;;;;;;;;;5031618;28;20235;-77
2020/12/14 12:15:25;;;;;;;27.53;14.27;;;;;;;;;;5046868;28;20237;-78
2020/12/14 12:17:53;;;;;;;23.60;13.73;;;;;;;;;;5056292;28;20219;-78
2020/12/14 12:20:21;;;;;;;28.07;13.13;;;;;;;;;;5047127;28;20214;-77
2020/12/14 12:22:49;;;;;;;22.60;12.17;;;;;;;;;;5029400;28;20222;-78
2020/12/14 12:25:17;;;;;;;23.97;12.83;;;;;;;;;;5045286;28;20235;-78
2020/12/14 12:27:45;;;;;;;24.13;12.93;;;;;;;;;;5032171;28;20234;-78
2020/12/14 12:30:12;;;;;;;23.47;12.70;;;;;;;;;;5048072;28;20235;-78
2020/12/14 12:32:44;;;;;;;24.03;13.93;;;;;;;;;;5034503;28;20241;-78
2020/12/14 12:35:13;;;;;;;27.63;14.37;;;;;;;;;;5049880;28;20227;-78
2020/12/14 12:37:41;;;;;;;21.30;12.77;;;;;;;;;;5033706;28;20234;-78
2020/12/14 12:40:09;;;;;;;21.80;11.93;;;;;;;;;;5049667;28;20235;-78
2020/12/14 12:42:38;;;;;;;22.80;13.17;;;;;;;;;;5047823;28;20703;-78
2020/12/14 12:45:06;;;;;;;19.63;11.60;;;;;;;;;;5045576;28;20229;-78
2020/12/14 12:47:33;;;;;;;20.77;10.97;;;;;;;;;;5053671;28;20218;-78
2020/12/14 12:50:01;;;;;;;16.43;10.47;;;;;;;;;;5048412;28;20219;-78
2020/12/14 12:52:29;;;;;;;16.27;9.90;;;;;;;;;;5053641;28;20234;-78
2020/12/14 12:54:56;;;;;;;19.47;10.90;;;;;;;;;;5050398;28;20226;-79
2020/12/14 12:57:24;;;;;;;18.20;11.20;;;;;;;;;;5054500;28;22741;-82
2020/12/14 12:59:52;;;;;;;21.83;12.30;;;;;;;;;;5059407;28;20237;-79
2020/12/14 13:02:20;;;;;;;20.97;13.27;;;;;;;;;;5080583;28;20227;-79
2020/12/14 13:04:48;;;;;;;23.33;12.80;;;;;;;;;;5048780;28;20392;-79
2020/12/14 13:07:16;;;;;;;20.70;11.53;;;;;;;;;;5047202;28;21487;-79
2020/12/14 13:09:44;;;;;;;22.13;13.30;;;;;;;;;;5050307;28;20227;-79
2020/12/14 13:12:11;;;;;;;18.50;11.70;;;;;;;;;;5064006;28;20749;-79
2020/12/14 13:14:39;;;;;;;20.07;11.60;;;;;;;;;;5049433;28;20237;-79
2020/12/14 13:17:07;;;;;;;21.07;12.40;;;;;;;;;;5068923;28;20223;-79
2020/12/14 13:19:37;;;;;;;19.13;12.00;;;;;;;;;;5046595;28;20214;-79
2020/12/14 13:22:04;;;;;;;20.13;11.10;;;;;;;;;;5055395;28;20593;-79
2020/12/14 13:24:31;;;;;;;18.97;11.37;;;;;;;;;;5062663;28;20522;-79
2020/12/14 13:26:59;;;;;;;20.33;11.80;;;;;;;;;;5063068;28;20235;-78
2020/12/14 13:29:27;;;;;;;22.90;12.00;;;;;;;;;;5064233;28;20601;-78
2020/12/14 13:31:54;;;;;;;20.80;11.93;;;;;;;;;;5067427;28;20443;-79
2020/12/14 13:34:23;;;;;;;17.37;11.43;;;;;;;;;;5071437;28;20229;-79
2020/12/14 13:36:51;;;;;;;21.43;12.87;;;;;;;;;;5064924;28;20234;-78
2020/12/14 13:39:23;;;;;;;23.50;11.93;;;;;;;;;;5046225;28;20227;-79
2020/12/14 13:41:53;;;;;;;18.37;11.80;;;;;;;;;;5030920;28;20609;-79
2020/12/14 13:44:21;;;;;;;19.63;11.57;;;;;;;;;;5038658;28;20238;-79
2020/12/14 13:46:48;;;;;;;21.57;12.47;;;;;;;;;;5062418;28;20235;-79
2020/12/14 13:49:20;;;;;;;19.27;11.50;;;;;;;;;;5068607;28;20230;-79
2020/12/14 13:51:49;;;;;;;19.60;11.60;;;;;;;;;;5058557;28;20608;-79
2020/12/14 13:54:16;;;;;;;21.60;11.60;;;;;;;;;;5029135;28;20234;-78
2020/12/14 13:56:44;;;;;;;23.00;12.97;;;;;;;;;;5033792;28;20215;-78
2020/12/14 13:59:12;;;;;;;18.30;10.97;;;;;;;;;;5055732;28;20218;-78
2020/12/14 14:01:40;;;;;;;20.73;11.70;;;;;;;;;;5054806;28;20242;-78
2020/12/14 14:04:07;;;;;;;20.77;11.77;;;;;;;;;;5053425;28;20317;-79
2020/12/14 14:06:35;;;;;;;21.80;12.97;;;;;;;;;;5049785;28;20231;-78
2020/12/14 14:09:03;;;;;;;20.43;11.57;;;;;;;;;;5039630;28;20242;-78
2020/12/14 14:11:31;;;;;;;19.17;11.43;;;;;;;;;;5056768;28;20222;-78
2020/12/14 14:13:58;;;;;;;22.03;11.63;;;;;;;;;;5069063;28;20634;-78
2020/12/14 14:16:26;;;;;;;24.07;12.47;;;;;;;;;;5062936;28;20233;-78
2020/12/14 14:18:54;;;;;;;21.07;10.43;;;;;;;;;;5052912;28;20597;-79
2020/12/14 14:21:22;;;;;;;16.17;10.07;;;;;;;;;;5057522;28;20233;-77
2020/12/14 14:23:49;;;;;;;17.67;10.00;;;;;;;;;;5057173;28;20242;-78
2020/12/14 14:26:18;;;;;;;20.17;10.03;;;;;;;;;;5040268;28;20222;-77
2020/12/14 14:28:45;;;;;;;16.50;9.87;;;;;;;;;;5041774;28;20716;-78
2020/12/14 14:31:17;;;;;;;17.70;9.47;;;;;;;;;;5059106;28;20236;-78
2020/12/14 14:33:45;;;;;;;16.07;8.83;;;;;;;;;;5036289;28;20215;-78
2020/12/14 14:36:13;;;;;;;17.60;9.20;;;;;;;;;;5059003;28;20222;-78
2020/12/14 14:38:41;;;;;;;15.17;8.73;;;;;;;;;;5060664;28;20227;-78
2020/12/14 14:41:09;;;;;;;16.63;9.30;;;;;;;;;;5041135;28;20222;-78